createdAt,value
2019-03-11T00:00:19.356Z,1.50
2019-03-11T00:02:49.026Z,2.40
2019-03-11T00:05:18.486Z,1.97
2019-03-11T00:07:48.124Z,2.40
2019-03-11T00:10:17.689Z,2.10
2019-03-11T00:12:47.206Z,2.30
2019-03-11T00:15:16.727Z,2.43
2019-03-11T00:17:46.443Z,1.63
2019-03-11T00:20:15.771Z,1.63
2019-03-11T00:22:45.370Z,2.07
2019-03-11T00:25:15.014Z,1.87
2019-03-11T00:27:44.734Z,2.07
2019-03-11T00:30:14.257Z,2.10
2019-03-11T00:32:43.707Z,1.90
2019-03-11T00:35:13.122Z,1.87
2019-03-11T00:37:42.616Z,1.80
2019-03-11T00:40:12.359Z,1.73
2019-03-11T00:42:41.838Z,1.77
2019-03-11T00:45:11.919Z,1.87
2019-03-11T00:47:41.371Z,1.90
2019-03-11T00:50:11.446Z,2.13
2019-03-11T00:52:40.988Z,1.50
2019-03-11T00:55:10.615Z,2.03
2019-03-11T00:57:40.109Z,1.90
2019-03-11T01:00:15.459Z,2.30
2019-03-11T01:02:44.957Z,2.13
2019-03-11T01:05:14.975Z,2.13
2019-03-11T01:07:44.353Z,2.53
2019-03-11T01:10:13.864Z,1.90
2019-03-11T01:12:43.177Z,1.83
2019-03-11T01:15:12.887Z,1.83
2019-03-11T01:17:42.266Z,1.80
2019-03-11T01:20:11.867Z,1.70
2019-03-11T01:22:41.511Z,1.60
2019-03-11T01:25:11.817Z,1.90
2019-03-11T01:27:41.338Z,1.90
2019-03-11T01:30:11.524Z,1.80
2019-03-11T01:32:40.901Z,2.00
2019-03-11T01:35:11.134Z,2.37
2019-03-11T01:37:40.486Z,2.03
2019-03-11T01:40:11.861Z,1.90
2019-03-11T01:42:41.422Z,2.63
2019-03-11T01:45:13.206Z,2.23
2019-03-11T01:47:42.774Z,1.60
2019-03-11T01:50:13.271Z,1.70
2019-03-11T01:52:42.846Z,2.30
2019-03-11T01:55:12.605Z,2.50
2019-03-11T01:57:42.035Z,1.80
2019-03-11T02:00:13.658Z,2.23
2019-03-11T02:02:42.999Z,1.83
2019-03-11T02:05:12.588Z,2.30
2019-03-11T02:07:42.201Z,2.20
2019-03-11T02:10:13.578Z,2.53
2019-03-11T02:12:43.494Z,2.70
2019-03-11T02:15:14.527Z,2.70
2019-03-11T02:17:44.054Z,2.07
2019-03-11T02:20:14.530Z,2.00
2019-03-11T02:22:44.037Z,2.23
2019-03-11T02:25:14.038Z,2.47
2019-03-11T02:27:43.828Z,2.07
2019-03-11T02:30:13.469Z,3.00
2019-03-11T02:32:43.041Z,4.00
2019-03-11T02:35:12.433Z,2.37
2019-03-11T02:37:41.856Z,2.70
2019-03-11T02:40:12.778Z,3.47
2019-03-11T02:42:42.452Z,2.63
2019-03-11T02:45:11.924Z,2.97
2019-03-11T02:47:41.539Z,2.10
2019-03-11T02:50:11.151Z,2.10
2019-03-11T02:52:40.595Z,2.00
2019-03-11T02:55:10.166Z,1.93
2019-03-11T02:57:39.711Z,2.03
2019-03-11T03:00:13.175Z,2.20
2019-03-11T03:03:07.995Z,1.90
2019-03-11T03:05:42.237Z,2.53
2019-03-11T03:08:11.678Z,2.27
2019-03-11T03:10:41.144Z,2.17
2019-03-11T03:13:10.517Z,2.20
2019-03-11T03:15:40.099Z,1.83
2019-03-11T03:18:09.431Z,2.10
2019-03-11T03:20:39.016Z,2.43
2019-03-11T03:23:08.491Z,2.13
2019-03-11T03:25:38.258Z,1.73
2019-03-11T03:28:07.784Z,2.90
2019-03-11T03:30:37.436Z,2.77
2019-03-11T03:33:06.815Z,3.00
2019-03-11T03:35:36.207Z,1.97
2019-03-11T03:38:05.766Z,2.70
2019-03-11T03:40:35.336Z,1.97
2019-03-11T03:43:04.768Z,2.77
2019-03-11T03:45:40.049Z,2.00
2019-03-11T03:48:09.899Z,2.20
2019-03-11T03:50:40.895Z,2.30
2019-03-11T03:53:10.804Z,2.60
2019-03-11T03:55:40.793Z,2.73
2019-03-11T03:58:10.171Z,2.07
2019-03-11T04:00:39.566Z,2.00
2019-03-11T04:03:09.063Z,2.20
2019-03-11T04:05:38.592Z,2.03
2019-03-11T04:08:08.145Z,2.03
2019-03-11T04:10:37.507Z,2.47
2019-03-11T04:13:07.038Z,2.00
2019-03-11T04:15:36.683Z,1.97
2019-03-11T04:18:09.566Z,2.27
2019-03-11T04:20:39.115Z,2.70
2019-03-11T04:23:08.980Z,2.23
2019-03-11T04:25:38.522Z,1.93
2019-03-11T04:28:13.089Z,2.47
2019-03-11T04:30:48.949Z,2.57
2019-03-11T04:34:20.834Z,2.10
2019-03-11T04:36:18.213Z,2.10
2019-03-11T04:39:18.817Z,1.93
2019-03-11T04:42:01.633Z,2.00
2019-03-11T04:44:38.905Z,2.30
2019-03-11T04:47:32.274Z,1.90
2019-03-11T04:50:13.436Z,1.67
2019-03-11T04:52:47.300Z,1.80
2019-03-11T04:55:37.828Z,2.30
2019-03-11T04:58:18.306Z,1.70
2019-03-11T05:00:58.724Z,1.83
2019-03-11T05:07:02.579Z,2.13
2019-03-11T05:09:39.589Z,2.17
2019-03-11T05:12:59.463Z,2.10
2019-03-11T05:18:25.091Z,1.80
2019-03-11T05:21:36.380Z,1.63
2019-03-11T05:24:19.152Z,2.17
2019-03-11T05:27:36.316Z,1.03
2019-03-11T05:31:20.572Z,1.27
2019-03-11T05:34:40.382Z,0.90
2019-03-11T05:40:59.957Z,0.80
2019-03-11T05:44:03.415Z,0.97
2019-03-11T05:50:21.844Z,0.90
2019-03-11T05:52:57.442Z,0.80
2019-03-11T05:56:42.078Z,1.10
2019-03-11T05:58:30.522Z,0.50
2019-03-11T06:01:19.098Z,0.90
2019-03-11T06:04:36.022Z,0.97
2019-03-11T06:07:38.629Z,0.90
2019-03-11T06:10:59.862Z,1.07
2019-03-11T06:20:42.106Z,0.70
2019-03-11T06:23:31.140Z,0.40
2019-03-11T06:26:00.806Z,0.67
2019-03-11T06:28:30.175Z,0.60
2019-03-11T06:30:59.528Z,0.70
2019-03-11T06:33:28.979Z,0.73
2019-03-11T06:35:58.337Z,0.93
2019-03-11T06:38:27.691Z,0.60
2019-03-11T06:40:57.316Z,1.20
2019-03-11T06:43:26.786Z,1.40
2019-03-11T06:45:56.687Z,0.77
2019-03-11T06:48:26.057Z,0.83
2019-03-11T06:50:56.035Z,0.80
2019-03-11T06:53:25.842Z,5.03
2019-03-11T06:55:55.768Z,1.10
2019-03-11T06:58:25.119Z,1.23
2019-03-11T07:00:54.586Z,1.13
2019-03-11T07:03:24.041Z,1.10
2019-03-11T07:05:53.571Z,0.87
2019-03-11T07:08:23.104Z,0.80
2019-03-11T07:10:52.622Z,1.03
2019-03-11T07:13:22.177Z,0.70
2019-03-11T07:15:51.737Z,0.70
2019-03-11T07:18:21.238Z,0.70
2019-03-11T07:20:50.875Z,0.80
2019-03-11T07:23:20.363Z,0.80
2019-03-11T07:25:49.834Z,2.00
2019-03-11T07:28:19.264Z,21.67
2019-03-11T07:30:48.900Z,18.50
2019-03-11T07:33:18.443Z,11.77
2019-03-11T07:35:48.063Z,15.00
2019-03-11T07:38:17.571Z,7.17
2019-03-11T07:40:47.096Z,1.57
2019-03-11T07:43:16.832Z,1.03
2019-03-11T07:45:46.205Z,1.00
2019-03-11T07:48:15.938Z,1.20
2019-03-11T07:50:45.511Z,1.50
2019-03-11T07:53:14.994Z,1.90
2019-03-11T07:55:44.343Z,0.80
2019-03-11T07:58:14.049Z,0.90
2019-03-11T08:00:53.281Z,1.10
2019-03-11T08:03:14.595Z,0.90
2019-03-11T08:05:43.922Z,1.50
2019-03-11T08:08:13.360Z,0.77
2019-03-11T08:10:42.681Z,0.67
2019-03-11T08:13:12.388Z,1.00
2019-03-11T08:15:41.741Z,1.13
2019-03-11T08:18:11.291Z,0.60
2019-03-11T08:20:40.977Z,0.60
2019-03-11T08:23:10.360Z,0.97
2019-03-11T08:25:39.898Z,0.63
2019-03-11T08:28:09.467Z,0.70
2019-03-11T08:30:39.024Z,0.80
2019-03-11T08:33:08.743Z,0.80
2019-03-11T08:35:38.244Z,0.90
2019-03-11T08:38:08.027Z,0.80
2019-03-11T08:40:37.519Z,0.87
2019-03-11T08:43:07.293Z,0.90
2019-03-11T08:45:36.825Z,0.90
2019-03-11T08:48:06.887Z,1.10
2019-03-11T08:50:36.513Z,0.83
2019-03-11T08:53:06.270Z,0.87
2019-03-11T08:55:35.522Z,0.83
2019-03-11T08:58:05.309Z,0.60
2019-03-11T09:00:34.925Z,0.80
2019-03-11T09:03:04.364Z,1.30
2019-03-11T09:05:33.756Z,4.47
2019-03-11T09:08:03.198Z,2.53
2019-03-11T09:10:32.722Z,0.90
2019-03-11T09:13:02.234Z,4.63
2019-03-11T09:15:31.822Z,2.13
2019-03-11T09:18:01.350Z,1.07
2019-03-11T09:20:31.006Z,1.30
2019-03-11T09:23:00.527Z,0.70
2019-03-11T09:25:30.481Z,1.50
2019-03-11T09:27:59.957Z,1.30
2019-03-11T09:30:29.438Z,1.47
2019-03-11T09:32:58.942Z,0.80
2019-03-11T09:35:28.372Z,1.03
2019-03-11T09:37:57.895Z,1.10
2019-03-11T09:40:27.332Z,0.90
2019-03-11T09:42:56.851Z,1.10
2019-03-11T09:45:26.272Z,0.70
2019-03-11T09:47:55.805Z,1.60
2019-03-11T09:50:25.324Z,1.60
2019-03-11T09:52:55.288Z,1.00
2019-03-11T09:55:24.679Z,1.10
2019-03-11T09:57:54.172Z,0.77
2019-03-11T10:00:23.667Z,0.90
2019-03-11T10:02:53.716Z,1.03
2019-03-11T10:05:23.482Z,1.30
2019-03-11T10:07:52.963Z,0.53
2019-03-11T10:10:22.827Z,0.90
2019-03-11T10:12:52.707Z,1.00
2019-03-11T10:15:22.167Z,1.10
2019-03-11T10:17:51.553Z,0.83
2019-03-11T10:20:21.205Z,0.80
2019-03-11T10:22:50.679Z,0.60
2019-03-11T10:25:20.089Z,0.80
2019-03-11T10:27:49.759Z,1.00
2019-03-11T10:30:19.659Z,0.60
2019-03-11T10:32:49.381Z,0.60
2019-03-11T10:35:31.568Z,0.70
2019-03-11T10:37:49.928Z,0.93
2019-03-11T10:40:21.896Z,0.80
2019-03-11T10:42:51.282Z,1.00
2019-03-11T10:45:30.627Z,0.60
2019-03-11T10:47:52.214Z,1.17
2019-03-11T10:50:21.893Z,0.60
2019-03-11T10:52:51.350Z,0.73
2019-03-11T10:55:20.944Z,0.73
2019-03-11T10:57:50.423Z,0.70
2019-03-11T11:00:23.426Z,1.13
2019-03-11T11:02:52.988Z,0.50
2019-03-11T11:05:22.898Z,1.20
2019-03-11T11:07:52.340Z,1.20
2019-03-11T11:10:21.968Z,1.80
2019-03-11T11:12:51.537Z,1.20
2019-03-11T11:15:22.026Z,1.70
2019-03-11T11:17:51.463Z,1.40
2019-03-11T11:20:21.290Z,1.30
2019-03-11T11:22:51.343Z,0.87
2019-03-11T11:25:20.930Z,1.00
2019-03-11T11:27:50.547Z,1.00
2019-03-11T11:30:21.933Z,1.20
2019-03-11T11:32:52.226Z,1.30
2019-03-11T11:35:21.964Z,2.73
2019-03-11T11:37:51.452Z,1.40
2019-03-11T11:40:22.940Z,1.00
2019-03-11T11:42:52.767Z,0.97
2019-03-11T11:45:22.730Z,1.10
2019-03-11T11:47:52.377Z,1.10
2019-03-11T11:50:22.307Z,1.30
2019-03-11T11:52:51.883Z,1.00
2019-03-11T11:55:23.066Z,0.90
2019-03-11T11:57:52.719Z,1.00
2019-03-11T12:00:25.795Z,1.20
2019-03-11T12:02:55.262Z,0.80
2019-03-11T12:05:24.647Z,0.93
2019-03-11T12:07:54.154Z,0.80
2019-03-11T12:10:24.293Z,0.80
2019-03-11T12:12:53.899Z,0.87
2019-03-11T12:15:23.797Z,1.10
2019-03-11T12:17:53.199Z,2.20
2019-03-11T12:20:23.908Z,1.20
2019-03-11T12:22:53.334Z,0.90
2019-03-11T12:25:23.527Z,1.50
2019-03-11T12:27:54.571Z,0.87
2019-03-11T12:30:25.895Z,1.00
2019-03-11T12:32:55.673Z,0.93
2019-03-11T12:35:25.356Z,1.70
2019-03-11T12:37:54.870Z,0.70
2019-03-11T12:40:24.725Z,1.17
2019-03-11T12:42:54.324Z,0.83
2019-03-11T12:45:25.164Z,1.50
2019-03-11T12:47:55.360Z,0.90
2019-03-11T12:50:25.050Z,1.13
2019-03-11T12:52:54.504Z,0.83
2019-03-11T12:55:24.324Z,1.27
2019-03-11T12:57:53.935Z,1.10
2019-03-11T13:00:23.506Z,1.00
2019-03-11T13:02:53.029Z,1.30
2019-03-11T13:05:22.491Z,1.77
2019-03-11T13:07:52.137Z,1.20
2019-03-11T13:10:22.178Z,1.50
2019-03-11T13:12:52.037Z,1.50
2019-03-11T13:15:21.806Z,1.40
2019-03-11T13:17:51.315Z,1.20
2019-03-11T13:20:24.249Z,1.17
2019-03-11T13:22:53.919Z,1.90
2019-03-11T13:25:23.535Z,1.67
2019-03-11T13:27:53.048Z,1.30
2019-03-11T13:30:22.622Z,1.70
2019-03-11T13:32:52.250Z,1.13
2019-03-11T13:35:21.698Z,1.50
2019-03-11T13:37:51.291Z,1.40
2019-03-11T13:40:20.791Z,0.90
2019-03-11T13:42:50.303Z,1.33
2019-03-11T13:45:20.203Z,1.83
2019-03-11T13:47:50.273Z,2.20
2019-03-11T13:50:19.902Z,1.70
2019-03-11T13:52:49.436Z,1.10
2019-03-11T13:55:19.351Z,1.40
2019-03-11T13:57:49.200Z,1.00
2019-03-11T14:00:19.274Z,1.50
2019-03-11T14:02:50.235Z,1.13
2019-03-11T14:05:20.257Z,1.40
2019-03-11T14:07:49.823Z,1.10
2019-03-11T14:10:19.567Z,1.00
2019-03-11T14:12:48.958Z,1.30
2019-03-11T14:15:18.659Z,0.93
2019-03-11T14:17:48.391Z,1.30
2019-03-11T14:20:18.254Z,2.17
2019-03-11T14:22:48.076Z,2.30
2019-03-11T14:25:17.647Z,1.13
2019-03-11T14:27:47.303Z,1.03
2019-03-11T14:30:16.799Z,1.60
2019-03-11T14:32:46.212Z,1.30
2019-03-11T14:35:16.479Z,2.73
2019-03-11T14:37:46.338Z,2.60
2019-03-11T14:40:15.842Z,2.43
2019-03-11T14:42:45.431Z,2.30
2019-03-11T14:45:15.636Z,2.07
2019-03-11T14:47:45.359Z,3.63
2019-03-11T14:50:15.681Z,2.00
2019-03-11T14:52:45.421Z,1.27
2019-03-11T14:55:15.023Z,1.43
2019-03-11T14:57:45.103Z,2.10
2019-03-11T15:00:18.319Z,1.40
2019-03-11T15:02:48.736Z,1.93
2019-03-11T15:05:18.579Z,1.80
2019-03-11T15:07:48.437Z,1.90
2019-03-11T15:10:18.716Z,1.40
2019-03-11T15:12:48.187Z,1.37
2019-03-11T15:15:18.534Z,2.00
2019-03-11T15:17:48.099Z,1.80
2019-03-11T15:20:17.699Z,3.13
2019-03-11T15:22:47.225Z,2.00
2019-03-11T15:25:17.307Z,2.07
2019-03-11T15:27:47.060Z,2.50
2019-03-11T15:30:17.540Z,1.30
2019-03-11T15:32:47.162Z,1.40
2019-03-11T15:35:16.687Z,1.87
2019-03-11T15:37:46.291Z,1.93
2019-03-11T15:40:15.847Z,1.13
2019-03-11T15:42:46.449Z,1.37
2019-03-11T15:45:16.062Z,0.90
2019-03-11T15:47:45.997Z,1.30
2019-03-11T15:50:17.877Z,2.00
2019-03-11T15:52:47.467Z,1.67
2019-03-11T15:55:17.279Z,6.63
2019-03-11T15:57:47.261Z,2.70
2019-03-11T16:00:19.018Z,7.37
2019-03-11T16:02:49.629Z,3.37
2019-03-11T16:05:20.182Z,4.80
2019-03-11T16:07:50.173Z,4.80
2019-03-11T16:10:20.139Z,2.23
2019-03-11T16:12:49.945Z,1.30
2019-03-11T16:15:20.031Z,1.30
2019-03-11T16:17:49.647Z,1.50
2019-03-11T16:20:19.586Z,1.70
2019-03-11T16:22:49.108Z,1.83
2019-03-11T16:25:19.225Z,2.50
2019-03-11T16:27:48.784Z,2.00
2019-03-11T16:30:19.914Z,2.13
2019-03-11T16:32:59.610Z,2.40
2019-03-11T16:35:22.126Z,1.70
2019-03-11T16:37:51.861Z,3.00
2019-03-11T16:40:21.851Z,3.80
2019-03-11T16:42:51.733Z,8.87
2019-03-11T16:45:22.097Z,6.20
2019-03-11T16:47:51.707Z,5.93
2019-03-11T16:50:21.578Z,6.33
2019-03-11T16:52:51.272Z,10.17
2019-03-11T16:55:23.183Z,9.10
2019-03-11T16:57:53.791Z,12.43
2019-03-11T17:00:27.369Z,9.70
2019-03-11T17:02:57.202Z,24.13
2019-03-11T17:05:26.624Z,61.47
2019-03-11T17:07:56.210Z,21.47
2019-03-11T17:10:25.900Z,19.50
2019-03-11T17:12:55.710Z,23.57
2019-03-11T17:15:25.473Z,13.03
2019-03-11T17:17:55.301Z,10.80
2019-03-11T17:20:24.898Z,6.20
2019-03-11T17:22:54.371Z,7.20
2019-03-11T17:25:24.363Z,8.40
2019-03-11T17:27:53.938Z,3.63
2019-03-11T17:30:23.543Z,1.93
2019-03-11T17:32:53.072Z,2.87
2019-03-11T17:35:22.526Z,3.20
2019-03-11T17:37:52.120Z,3.80
2019-03-11T17:40:22.016Z,6.13
2019-03-11T17:42:51.989Z,6.77
2019-03-11T17:45:21.668Z,5.00
2019-03-11T17:47:51.518Z,4.67
2019-03-11T17:50:21.359Z,3.40
2019-03-11T17:52:51.456Z,3.77
2019-03-11T17:55:22.063Z,4.80
2019-03-11T17:57:51.941Z,4.50
2019-03-11T18:00:25.737Z,3.07
2019-03-11T18:02:55.788Z,3.30
2019-03-11T18:05:25.522Z,2.57
2019-03-11T18:07:55.107Z,2.70
2019-03-11T18:10:24.692Z,2.27
2019-03-11T18:12:54.573Z,3.10
2019-03-11T18:15:24.430Z,6.03
2019-03-11T18:17:54.427Z,4.00
2019-03-11T18:20:24.494Z,2.80
2019-03-11T18:22:54.687Z,3.10
2019-03-11T18:25:24.431Z,5.40
2019-03-11T18:27:54.613Z,8.53
2019-03-11T18:30:24.524Z,10.27
2019-03-11T18:32:54.957Z,4.90
2019-03-11T18:35:24.852Z,5.93
2019-03-11T18:38:04.232Z,5.83
2019-03-11T18:40:28.571Z,14.63
2019-03-11T18:42:58.558Z,9.57
2019-03-11T18:45:28.436Z,6.43
2019-03-11T18:47:58.521Z,10.50
2019-03-11T18:50:28.451Z,14.03
2019-03-11T18:52:58.783Z,12.43
2019-03-11T18:55:28.911Z,18.40
2019-03-11T18:57:58.532Z,25.70
2019-03-11T19:00:28.243Z,14.97
2019-03-11T19:02:58.625Z,12.23
2019-03-11T19:05:28.810Z,9.00
2019-03-11T19:07:58.812Z,7.87
2019-03-11T19:10:28.814Z,6.57
2019-03-11T19:12:58.990Z,4.90
2019-03-11T19:15:29.334Z,5.60
2019-03-11T19:17:59.485Z,6.37
2019-03-11T19:20:29.615Z,11.60
2019-03-11T19:23:00.092Z,13.30
2019-03-11T19:25:29.938Z,6.93
2019-03-11T19:28:00.678Z,5.20
2019-03-11T19:30:30.535Z,4.43
2019-03-11T19:33:01.166Z,4.83
2019-03-11T19:35:31.311Z,7.87
2019-03-11T19:38:01.410Z,2.50
2019-03-11T19:40:31.777Z,2.63
2019-03-11T19:43:01.742Z,2.30
2019-03-11T19:45:31.743Z,2.90
2019-03-11T19:48:01.916Z,3.10
2019-03-11T19:50:31.760Z,2.53
2019-03-11T19:53:02.191Z,3.40
2019-03-11T19:55:31.885Z,3.07
2019-03-11T19:58:01.481Z,3.00
2019-03-11T20:00:31.528Z,2.60
2019-03-11T20:03:01.679Z,3.37
2019-03-11T20:05:31.713Z,2.53
2019-03-11T20:08:02.287Z,2.37
2019-03-11T20:10:32.228Z,1.17
2019-03-11T20:13:02.434Z,1.90
2019-03-11T20:15:32.259Z,1.03
2019-03-11T20:18:02.058Z,1.67
2019-03-11T20:20:31.875Z,2.37
2019-03-11T20:23:02.004Z,2.50
2019-03-11T20:25:31.613Z,3.53
2019-03-11T20:28:02.505Z,2.07
2019-03-11T20:30:32.583Z,2.23
2019-03-11T20:33:04.137Z,23.13
2019-03-11T20:35:34.189Z,9.07
2019-03-11T20:38:05.052Z,4.53
2019-03-11T20:40:34.654Z,15.53
2019-03-11T20:43:04.624Z,13.13
2019-03-11T20:45:35.441Z,8.33
2019-03-11T20:48:05.626Z,2.47
2019-03-11T20:50:41.983Z,11.20
2019-03-11T20:53:07.084Z,6.13
2019-03-11T20:55:36.808Z,4.57
2019-03-11T20:58:06.423Z,2.20
2019-03-11T21:00:36.068Z,1.80
2019-03-11T21:03:06.127Z,2.60
2019-03-11T21:05:35.971Z,7.10
2019-03-11T21:08:06.073Z,15.50
2019-03-11T21:10:35.862Z,3.17
2019-03-11T21:13:06.129Z,2.33
2019-03-11T21:15:36.044Z,2.83
2019-03-11T21:18:06.117Z,2.40
2019-03-11T21:20:35.868Z,2.30
2019-03-11T21:23:06.122Z,2.57
2019-03-11T21:25:36.167Z,2.60
2019-03-11T21:28:05.946Z,3.50
2019-03-11T21:30:35.802Z,2.60
2019-03-11T21:33:05.770Z,2.73
2019-03-11T21:35:35.433Z,2.30
2019-03-11T21:38:05.412Z,2.60
2019-03-11T21:40:35.275Z,2.20
2019-03-11T21:43:05.040Z,1.80
2019-03-11T21:45:35.015Z,2.13
2019-03-11T21:48:05.141Z,2.40
2019-03-11T21:50:35.048Z,2.50
2019-03-11T21:53:05.591Z,1.83
2019-03-11T21:55:35.432Z,1.77
2019-03-11T21:58:13.052Z,1.83
2019-03-11T22:00:36.430Z,2.10
2019-03-11T22:03:06.234Z,2.27
2019-03-11T22:05:35.767Z,2.17
2019-03-11T22:08:05.376Z,4.23
2019-03-11T22:10:34.904Z,4.90
2019-03-11T22:13:04.552Z,9.93
2019-03-11T22:15:33.957Z,2.70
2019-03-11T22:18:03.464Z,4.43
2019-03-11T22:20:32.907Z,5.50
2019-03-11T22:23:02.383Z,4.70
2019-03-11T22:25:31.888Z,3.77
2019-03-11T22:28:01.350Z,2.80
2019-03-11T22:30:30.812Z,3.37
2019-03-11T22:33:00.521Z,3.80
2019-03-11T22:35:29.962Z,2.30
2019-03-11T22:37:59.723Z,2.13
2019-03-11T22:40:29.100Z,2.13
2019-03-11T22:42:58.660Z,1.50
2019-03-11T22:45:28.339Z,2.03
2019-03-11T22:47:57.947Z,1.90
2019-03-11T22:50:27.328Z,17.87
2019-03-11T22:52:56.811Z,7.43
2019-03-11T22:55:26.460Z,2.93
2019-03-11T22:57:55.956Z,2.70
2019-03-11T23:00:41.925Z,2.10
2019-03-11T23:03:11.904Z,2.10
2019-03-11T23:05:56.568Z,2.33
2019-03-11T23:08:12.769Z,3.30
2019-03-11T23:10:42.404Z,2.83
2019-03-11T23:13:11.776Z,2.47
2019-03-11T23:15:41.388Z,2.50
2019-03-11T23:18:10.819Z,2.90
2019-03-11T23:20:40.463Z,2.80
2019-03-11T23:23:09.855Z,3.37
2019-03-11T23:25:39.548Z,2.37
2019-03-11T23:28:08.872Z,2.50
2019-03-11T23:30:38.526Z,2.53
2019-03-11T23:33:08.069Z,2.10
2019-03-11T23:35:37.647Z,2.07
2019-03-11T23:38:07.398Z,2.50
2019-03-11T23:40:36.779Z,2.20
2019-03-11T23:43:06.316Z,2.40
2019-03-11T23:45:35.920Z,2.17
2019-03-11T23:48:05.299Z,2.20
2019-03-11T23:50:35.309Z,5.10
2019-03-11T23:53:04.808Z,29.97
2019-03-11T23:55:34.261Z,19.43
2019-03-11T23:58:03.735Z,22.37
